sensor_id;sensor_type;location;lat;lon;timestamp;temperature;humidity
21184;DHT22;18176;49.502;11.754;2022-07-23T00:03:27;20.60;99.90
21184;DHT22;18176;49.502;11.754;2022-07-23T00:07:24;20.60;99.90
21184;DHT22;18176;49.502;11.754;2022-07-23T00:11:21;20.60;99.80
21184;DHT22;18176;49.502;11.754;2022-07-23T00:15:18;20.60;99.70
21184;DHT22;18176;49.502;11.754;2022-07-23T00:19:15;20.60;99.90
21184;DHT22;18176;49.502;11.754;2022-07-23T00:23:12;20.40;99.90
21184;DHT22;18176;49.502;11.754;2022-07-23T00:27:10;20.40;99.90
21184;DHT22;18176;49.502;11.754;2022-07-23T00:31:07;20.10;99.90
21184;DHT22;18176;49.502;11.754;2022-07-23T00:35:05;19.80;99.90
21184;DHT22;18176;49.502;11.754;2022-07-23T00:39:02;19.70;99.90
21184;DHT22;18176;49.502;11.754;2022-07-23T00:43:00;19.70;99.90
21184;DHT22;18176;49.502;11.754;2022-07-23T00:46:58;19.70;99.90
21184;DHT22;18176;49.502;11.754;2022-07-23T00:50:55;19.60;99.90
21184;DHT22;18176;49.502;11.754;2022-07-23T00:54:53;19.50;99.90
21184;DHT22;18176;49.502;11.754;2022-07-23T00:58:50;19.50;99.90
21184;DHT22;18176;49.502;11.754;2022-07-23T01:02:47;19.40;99.90
21184;DHT22;18176;49.502;11.754;2022-07-23T01:06:45;19.40;99.90
21184;DHT22;18176;49.502;11.754;2022-07-23T01:10:42;19.40;99.90
21184;DHT22;18176;49.502;11.754;2022-07-23T01:14:39;19.40;99.90
21184;DHT22;18176;49.502;11.754;2022-07-23T01:18:36;19.40;99.90
21184;DHT22;18176;49.502;11.754;2022-07-23T01:22:34;19.50;99.90
21184;DHT22;18176;49.502;11.754;2022-07-23T01:26:31;19.40;99.90
21184;DHT22;18176;49.502;11.754;2022-07-23T01:30:28;19.40;99.90
21184;DHT22;18176;49.502;11.754;2022-07-23T01:34:27;19.40;99.90
21184;DHT22;18176;49.502;11.754;2022-07-23T01:38:24;19.40;99.90
21184;DHT22;18176;49.502;11.754;2022-07-23T01:42:21;19.40;99.90
21184;DHT22;18176;49.502;11.754;2022-07-23T01:46:19;19.40;99.90
21184;DHT22;18176;49.502;11.754;2022-07-23T01:50:18;19.50;99.90
21184;DHT22;18176;49.502;11.754;2022-07-23T01:54:34;19.50;99.90
21184;DHT22;18176;49.502;11.754;2022-07-23T01:58:34;19.60;99.90
21184;DHT22;18176;49.502;11.754;2022-07-23T02:02:31;19.60;99.90
21184;DHT22;18176;49.502;11.754;2022-07-23T02:06:31;19.70;99.90
21184;DHT22;18176;49.502;11.754;2022-07-23T02:10:28;19.80;99.90
21184;DHT22;18176;49.502;11.754;2022-07-23T02:14:26;19.80;99.90
21184;DHT22;18176;49.502;11.754;2022-07-23T02:18:23;19.90;99.90
21184;DHT22;18176;49.502;11.754;2022-07-23T02:22:21;19.90;99.90
21184;DHT22;18176;49.502;11.754;2022-07-23T02:26:18;19.90;99.90
21184;DHT22;18176;49.502;11.754;2022-07-23T02:30:19;19.90;99.90
21184;DHT22;18176;49.502;11.754;2022-07-23T02:34:16;19.90;99.90
21184;DHT22;18176;49.502;11.754;2022-07-23T02:38:13;19.90;99.90
21184;DHT22;18176;49.502;11.754;2022-07-23T02:42:10;19.90;99.90
21184;DHT22;18176;49.502;11.754;2022-07-23T02:46:08;19.90;99.90
21184;DHT22;18176;49.502;11.754;2022-07-23T02:50:06;20.00;99.90
21184;DHT22;18176;49.502;11.754;2022-07-23T02:54:03;19.90;99.90
21184;DHT22;18176;49.502;11.754;2022-07-23T02:58:01;19.90;99.90
21184;DHT22;18176;49.502;11.754;2022-07-23T03:01:58;19.90;99.90
21184;DHT22;18176;49.502;11.754;2022-07-23T03:05:57;19.90;99.90
21184;DHT22;18176;49.502;11.754;2022-07-23T03:09:54;19.90;99.90
21184;DHT22;18176;49.502;11.754;2022-07-23T03:13:53;19.90;99.90
21184;DHT22;18176;49.502;11.754;2022-07-23T03:17:50;19.90;99.90
21184;DHT22;18176;49.502;11.754;2022-07-23T03:21:47;20.00;99.90
21184;DHT22;18176;49.502;11.754;2022-07-23T03:25:44;20.00;99.90
21184;DHT22;18176;49.502;11.754;2022-07-23T03:29:47;20.00;99.90
21184;DHT22;18176;49.502;11.754;2022-07-23T03:33:45;19.90;99.90
21184;DHT22;18176;49.502;11.754;2022-07-23T03:37:42;19.80;99.90
21184;DHT22;18176;49.502;11.754;2022-07-23T03:41:42;19.80;99.90
21184;DHT22;18176;49.502;11.754;2022-07-23T03:45:40;19.70;99.90
21184;DHT22;18176;49.502;11.754;2022-07-23T03:49:37;19.60;99.90
21184;DHT22;18176;49.502;11.754;2022-07-23T03:53:34;19.70;99.90
21184;DHT22;18176;49.502;11.754;2022-07-23T03:57:31;19.70;99.90
21184;DHT22;18176;49.502;11.754;2022-07-23T04:01:28;19.60;99.90
21184;DHT22;18176;49.502;11.754;2022-07-23T04:05:27;19.60;99.90
21184;DHT22;18176;49.502;11.754;2022-07-23T04:09:34;19.50;99.90
21184;DHT22;18176;49.502;11.754;2022-07-23T04:13:31;19.50;99.90
21184;DHT22;18176;49.502;11.754;2022-07-23T04:17:30;19.60;99.90
21184;DHT22;18176;49.502;11.754;2022-07-23T04:21:28;19.60;99.90
21184;DHT22;18176;49.502;11.754;2022-07-23T04:25:25;19.60;99.90
21184;DHT22;18176;49.502;11.754;2022-07-23T04:29:22;19.70;99.90
21184;DHT22;18176;49.502;11.754;2022-07-23T04:33:19;19.70;99.90
21184;DHT22;18176;49.502;11.754;2022-07-23T04:37:19;19.70;99.90
21184;DHT22;18176;49.502;11.754;2022-07-23T04:41:16;19.70;99.90
21184;DHT22;18176;49.502;11.754;2022-07-23T04:45:13;19.70;99.90
21184;DHT22;18176;49.502;11.754;2022-07-23T04:49:12;19.60;99.90
21184;DHT22;18176;49.502;11.754;2022-07-23T04:53:09;19.70;99.90
21184;DHT22;18176;49.502;11.754;2022-07-23T04:57:07;19.70;99.90
21184;DHT22;18176;49.502;11.754;2022-07-23T05:01:04;19.70;99.90
21184;DHT22;18176;49.502;11.754;2022-07-23T05:05:04;19.70;99.90
21184;DHT22;18176;49.502;11.754;2022-07-23T05:09:01;19.90;99.90
21184;DHT22;18176;49.502;11.754;2022-07-23T05:12:59;19.90;99.90
21184;DHT22;18176;49.502;11.754;2022-07-23T05:16:57;20.10;99.90
21184;DHT22;18176;49.502;11.754;2022-07-23T05:20:55;20.10;99.90
21184;DHT22;18176;49.502;11.754;2022-07-23T05:24:52;20.20;99.90
21184;DHT22;18176;49.502;11.754;2022-07-23T05:28:50;20.20;99.90
21184;DHT22;18176;49.502;11.754;2022-07-23T05:32:49;20.30;99.90
21184;DHT22;18176;49.502;11.754;2022-07-23T05:36:47;20.30;99.90
21184;DHT22;18176;49.502;11.754;2022-07-23T05:40:45;20.30;99.90
21184;DHT22;18176;49.502;11.754;2022-07-23T05:44:43;20.30;99.90
21184;DHT22;18176;49.502;11.754;2022-07-23T05:48:40;20.40;99.90
21184;DHT22;18176;49.502;11.754;2022-07-23T05:52:48;20.60;99.90
21184;DHT22;18176;49.502;11.754;2022-07-23T05:57:08;20.90;99.90
21184;DHT22;18176;49.502;11.754;2022-07-23T06:01:08;21.00;99.90
21184;DHT22;18176;49.502;11.754;2022-07-23T06:05:13;21.20;99.90
21184;DHT22;18176;49.502;11.754;2022-07-23T06:09:10;21.30;99.90
21184;DHT22;18176;49.502;11.754;2022-07-23T06:13:10;21.50;99.90
21184;DHT22;18176;49.502;11.754;2022-07-23T06:17:07;21.80;99.90
21184;DHT22;18176;49.502;11.754;2022-07-23T06:21:05;22.00;99.90
21184;DHT22;18176;49.502;11.754;2022-07-23T06:25:23;22.20;99.90
21184;DHT22;18176;49.502;11.754;2022-07-23T06:29:20;22.40;99.90
21184;DHT22;18176;49.502;11.754;2022-07-23T06:33:17;22.90;99.90
21184;DHT22;18176;49.502;11.754;2022-07-23T06:37:15;23.20;99.90
21184;DHT22;18176;49.502;11.754;2022-07-23T06:41:15;23.50;99.90
21184;DHT22;18176;49.502;11.754;2022-07-23T06:45:12;23.70;99.90
21184;DHT22;18176;49.502;11.754;2022-07-23T06:49:09;23.90;99.90
21184;DHT22;18176;49.502;11.754;2022-07-23T06:53:07;24.00;99.90
21184;DHT22;18176;49.502;11.754;2022-07-23T06:57:04;24.20;99.90
21184;DHT22;18176;49.502;11.754;2022-07-23T07:01:02;24.30;99.90
21184;DHT22;18176;49.502;11.754;2022-07-23T07:04:59;24.40;99.90
21184;DHT22;18176;49.502;11.754;2022-07-23T07:09:02;24.50;99.90
21184;DHT22;18176;49.502;11.754;2022-07-23T07:12:59;24.40;99.90
21184;DHT22;18176;49.502;11.754;2022-07-23T07:16:56;24.50;99.90
21184;DHT22;18176;49.502;11.754;2022-07-23T07:20:53;24.50;99.90
21184;DHT22;18176;49.502;11.754;2022-07-23T07:24:52;24.60;99.90
21184;DHT22;18176;49.502;11.754;2022-07-23T07:28:49;24.80;99.90
21184;DHT22;18176;49.502;11.754;2022-07-23T07:32:46;24.90;99.90
21184;DHT22;18176;49.502;11.754;2022-07-23T07:36:53;25.00;99.90
21184;DHT22;18176;49.502;11.754;2022-07-23T07:40:50;25.10;99.90
21184;DHT22;18176;49.502;11.754;2022-07-23T07:44:47;25.10;99.90
21184;DHT22;18176;49.502;11.754;2022-07-23T07:48:46;25.10;99.90
21184;DHT22;18176;49.502;11.754;2022-07-23T07:52:44;25.10;99.90
21184;DHT22;18176;49.502;11.754;2022-07-23T07:56:41;25.20;99.90
21184;DHT22;18176;49.502;11.754;2022-07-23T08:00:38;25.50;99.90
21184;DHT22;18176;49.502;11.754;2022-07-23T08:04:35;25.80;99.90
21184;DHT22;18176;49.502;11.754;2022-07-23T08:08:32;26.20;99.90
21184;DHT22;18176;49.502;11.754;2022-07-23T08:12:47;26.50;99.90
21184;DHT22;18176;49.502;11.754;2022-07-23T08:16:46;26.80;99.90
21184;DHT22;18176;49.502;11.754;2022-07-23T08:21:03;27.00;99.90
21184;DHT22;18176;49.502;11.754;2022-07-23T08:25:02;26.90;99.90
21184;DHT22;18176;49.502;11.754;2022-07-23T08:29:00;26.50;99.90
21184;DHT22;18176;49.502;11.754;2022-07-23T08:33:03;26.60;99.90
21184;DHT22;18176;49.502;11.754;2022-07-23T08:37:01;26.80;99.90
21184;DHT22;18176;49.502;11.754;2022-07-23T08:40:58;26.90;99.90
21184;DHT22;18176;49.502;11.754;2022-07-23T08:44:55;26.80;99.90
21184;DHT22;18176;49.502;11.754;2022-07-23T08:48:55;27.60;99.90
21184;DHT22;18176;49.502;11.754;2022-07-23T08:52:54;28.80;99.90
21184;DHT22;18176;49.502;11.754;2022-07-23T08:56:51;29.10;99.90
21184;DHT22;18176;49.502;11.754;2022-07-23T09:00:48;28.70;99.90
21184;DHT22;18176;49.502;11.754;2022-07-23T09:04:46;28.20;99.90
21184;DHT22;18176;49.502;11.754;2022-07-23T09:08:44;28.00;99.90
21184;DHT22;18176;49.502;11.754;2022-07-23T09:12:42;28.00;99.90
21184;DHT22;18176;49.502;11.754;2022-07-23T09:16:39;28.40;99.90
21184;DHT22;18176;49.502;11.754;2022-07-23T09:20:37;29.20;99.90
21184;DHT22;18176;49.502;11.754;2022-07-23T09:24:34;28.80;99.90
21184;DHT22;18176;49.502;11.754;2022-07-23T09:28:31;27.90;99.90
21184;DHT22;18176;49.502;11.754;2022-07-23T09:32:28;27.30;99.90
21184;DHT22;18176;49.502;11.754;2022-07-23T09:36:29;26.80;99.90
21184;DHT22;18176;49.502;11.754;2022-07-23T09:40:27;26.20;99.90
21184;DHT22;18176;49.502;11.754;2022-07-23T09:44:24;25.70;99.90
21184;DHT22;18176;49.502;11.754;2022-07-23T09:48:24;25.20;99.90
21184;DHT22;18176;49.502;11.754;2022-07-23T09:52:27;24.90;99.90
21184;DHT22;18176;49.502;11.754;2022-07-23T09:56:33;24.50;99.90
21184;DHT22;18176;49.502;11.754;2022-07-23T10:00:33;24.20;99.90
21184;DHT22;18176;49.502;11.754;2022-07-23T10:04:32;23.30;99.90
21184;DHT22;18176;49.502;11.754;2022-07-23T10:08:44;22.70;99.90
21184;DHT22;18176;49.502;11.754;2022-07-23T10:13:22;22.20;99.90
21184;DHT22;18176;49.502;11.754;2022-07-23T10:17:39;22.00;99.90
21184;DHT22;18176;49.502;11.754;2022-07-23T10:21:46;22.00;99.90
21184;DHT22;18176;49.502;11.754;2022-07-23T10:26:46;22.00;99.90
21184;DHT22;18176;49.502;11.754;2022-07-23T10:31:08;21.70;99.90
21184;DHT22;18176;49.502;11.754;2022-07-23T10:39:44;21.10;99.90
21184;DHT22;18176;49.502;11.754;2022-07-23T10:43:42;20.60;99.90
21184;DHT22;18176;49.502;11.754;2022-07-23T10:47:39;20.20;99.90
21184;DHT22;18176;49.502;11.754;2022-07-23T10:52:22;20.10;99.90
21184;DHT22;18176;49.502;11.754;2022-07-23T11:00:52;20.40;99.90
21184;DHT22;18176;49.502;11.754;2022-07-23T11:05:00;20.70;99.90
21184;DHT22;18176;49.502;11.754;2022-07-23T11:13:49;21.30;99.90
21184;DHT22;18176;49.502;11.754;2022-07-23T11:21:45;21.40;99.90
21184;DHT22;18176;49.502;11.754;2022-07-23T11:25:45;21.50;99.90
21184;DHT22;18176;49.502;11.754;2022-07-23T11:29:43;21.70;99.90
21184;DHT22;18176;49.502;11.754;2022-07-23T11:33:43;22.00;99.90
21184;DHT22;18176;49.502;11.754;2022-07-23T11:37:41;22.40;99.90
21184;DHT22;18176;49.502;11.754;2022-07-23T11:41:44;22.70;99.90
21184;DHT22;18176;49.502;11.754;2022-07-23T11:49:56;22.90;99.90
21184;DHT22;18176;49.502;11.754;2022-07-23T11:54:05;23.10;99.90
21184;DHT22;18176;49.502;11.754;2022-07-23T11:58:03;23.10;99.90
21184;DHT22;18176;49.502;11.754;2022-07-23T12:02:03;22.90;99.90
21184;DHT22;18176;49.502;11.754;2022-07-23T12:06:01;22.60;99.90
21184;DHT22;18176;49.502;11.754;2022-07-23T12:10:01;22.50;99.90
21184;DHT22;18176;49.502;11.754;2022-07-23T12:14:09;23.50;99.90
21184;DHT22;18176;49.502;11.754;2022-07-23T12:18:08;24.50;99.90
21184;DHT22;18176;49.502;11.754;2022-07-23T12:22:06;24.40;99.90
21184;DHT22;18176;49.502;11.754;2022-07-23T12:26:03;25.00;99.90
21184;DHT22;18176;49.502;11.754;2022-07-23T12:30:21;25.70;99.90
21184;DHT22;18176;49.502;11.754;2022-07-23T12:34:29;26.70;99.90
21184;DHT22;18176;49.502;11.754;2022-07-23T12:38:28;28.30;99.90
21184;DHT22;18176;49.502;11.754;2022-07-23T12:42:42;29.60;99.90
21184;DHT22;18176;49.502;11.754;2022-07-23T12:46:39;30.00;98.50
21184;DHT22;18176;49.502;11.754;2022-07-23T12:54:46;30.60;94.00
21184;DHT22;18176;49.502;11.754;2022-07-23T12:58:53;31.00;92.70
21184;DHT22;18176;49.502;11.754;2022-07-23T13:02:53;32.00;90.00
21184;DHT22;18176;49.502;11.754;2022-07-23T13:06:59;32.60;86.40
21184;DHT22;18176;49.502;11.754;2022-07-23T13:11:00;33.10;86.60
21184;DHT22;18176;49.502;11.754;2022-07-23T13:14:58;33.30;83.20
21184;DHT22;18176;49.502;11.754;2022-07-23T13:18:55;33.90;80.50
21184;DHT22;18176;49.502;11.754;2022-07-23T13:22:54;34.90;76.60
21184;DHT22;18176;49.502;11.754;2022-07-23T13:26:51;35.00;70.30
21184;DHT22;18176;49.502;11.754;2022-07-23T13:30:49;34.20;69.90
21184;DHT22;18176;49.502;11.754;2022-07-23T13:34:48;33.30;70.30
21184;DHT22;18176;49.502;11.754;2022-07-23T13:38:46;32.80;71.70
21184;DHT22;18176;49.502;11.754;2022-07-23T13:42:43;31.40;72.40
21184;DHT22;18176;49.502;11.754;2022-07-23T13:46:41;30.80;76.20
21184;DHT22;18176;49.502;11.754;2022-07-23T13:50:39;30.90;76.10
21184;DHT22;18176;49.502;11.754;2022-07-23T13:54:38;31.90;73.50
21184;DHT22;18176;49.502;11.754;2022-07-23T13:58:36;32.30;70.60
21184;DHT22;18176;49.502;11.754;2022-07-23T14:02:34;31.80;74.20
21184;DHT22;18176;49.502;11.754;2022-07-23T14:06:32;32.80;74.40
21184;DHT22;18176;49.502;11.754;2022-07-23T14:10:30;34.00;72.00
21184;DHT22;18176;49.502;11.754;2022-07-23T14:14:27;34.20;69.60
21184;DHT22;18176;49.502;11.754;2022-07-23T14:18:24;34.00;70.20
21184;DHT22;18176;49.502;11.754;2022-07-23T14:22:28;33.30;71.60
21184;DHT22;18176;49.502;11.754;2022-07-23T14:26:25;33.10;71.10
21184;DHT22;18176;49.502;11.754;2022-07-23T14:30:22;33.50;70.70
21184;DHT22;18176;49.502;11.754;2022-07-23T14:34:28;33.00;70.90
21184;DHT22;18176;49.502;11.754;2022-07-23T14:38:25;32.90;72.10
21184;DHT22;18176;49.502;11.754;2022-07-23T14:42:23;32.00;75.50
21184;DHT22;18176;49.502;11.754;2022-07-23T14:46:20;31.90;76.00
21184;DHT22;18176;49.502;11.754;2022-07-23T14:50:18;31.40;75.70
21184;DHT22;18176;49.502;11.754;2022-07-23T14:54:15;31.30;77.70
21184;DHT22;18176;49.502;11.754;2022-07-23T14:58:14;31.30;79.00
21184;DHT22;18176;49.502;11.754;2022-07-23T15:02:11;31.60;78.00
21184;DHT22;18176;49.502;11.754;2022-07-23T15:06:09;32.40;76.20
21184;DHT22;18176;49.502;11.754;2022-07-23T15:10:08;33.40;73.70
21184;DHT22;18176;49.502;11.754;2022-07-23T15:14:06;34.60;70.60
21184;DHT22;18176;49.502;11.754;2022-07-23T15:18:04;33.80;72.20
21184;DHT22;18176;49.502;11.754;2022-07-23T15:22:02;32.30;74.50
21184;DHT22;18176;49.502;11.754;2022-07-23T15:26:04;32.50;75.30
21184;DHT22;18176;49.502;11.754;2022-07-23T15:30:04;33.10;74.20
21184;DHT22;18176;49.502;11.754;2022-07-23T15:34:04;33.70;72.20
21184;DHT22;18176;49.502;11.754;2022-07-23T15:38:02;34.00;72.20
21184;DHT22;18176;49.502;11.754;2022-07-23T15:42:07;34.00;70.50
21184;DHT22;18176;49.502;11.754;2022-07-23T15:46:10;33.40;72.70
21184;DHT22;18176;49.502;11.754;2022-07-23T15:50:08;32.50;73.40
21184;DHT22;18176;49.502;11.754;2022-07-23T15:54:06;30.90;78.20
21184;DHT22;18176;49.502;11.754;2022-07-23T15:58:04;30.50;81.20
21184;DHT22;18176;49.502;11.754;2022-07-23T16:02:02;30.10;83.30
21184;DHT22;18176;49.502;11.754;2022-07-23T16:06:00;31.00;81.60
21184;DHT22;18176;49.502;11.754;2022-07-23T16:09:57;31.50;80.70
21184;DHT22;18176;49.502;11.754;2022-07-23T16:13:54;31.80;79.20
21184;DHT22;18176;49.502;11.754;2022-07-23T16:17:54;33.00;76.30
21184;DHT22;18176;49.502;11.754;2022-07-23T16:21:51;32.60;75.10
21184;DHT22;18176;49.502;11.754;2022-07-23T16:25:48;32.40;73.80
21184;DHT22;18176;49.502;11.754;2022-07-23T16:29:46;31.90;74.90
21184;DHT22;18176;49.502;11.754;2022-07-23T16:33:43;31.20;76.10
21184;DHT22;18176;49.502;11.754;2022-07-23T16:37:41;30.20;78.90
21184;DHT22;18176;49.502;11.754;2022-07-23T16:41:38;29.40;81.80
21184;DHT22;18176;49.502;11.754;2022-07-23T16:45:35;29.10;83.70
21184;DHT22;18176;49.502;11.754;2022-07-23T16:49:32;29.20;84.20
21184;DHT22;18176;49.502;11.754;2022-07-23T16:53:31;29.20;83.90
21184;DHT22;18176;49.502;11.754;2022-07-23T16:57:28;29.00;84.80
21184;DHT22;18176;49.502;11.754;2022-07-23T17:01:25;29.50;84.20
21184;DHT22;18176;49.502;11.754;2022-07-23T17:05:22;30.60;81.90
21184;DHT22;18176;49.502;11.754;2022-07-23T17:09:20;31.20;78.90
21184;DHT22;18176;49.502;11.754;2022-07-23T17:13:17;31.00;79.80
21184;DHT22;18176;49.502;11.754;2022-07-23T17:17:15;30.60;80.60
21184;DHT22;18176;49.502;11.754;2022-07-23T17:21:12;30.30;81.60
21184;DHT22;18176;49.502;11.754;2022-07-23T17:25:09;30.90;80.40
21184;DHT22;18176;49.502;11.754;2022-07-23T17:29:10;31.50;76.60
21184;DHT22;18176;49.502;11.754;2022-07-23T17:33:08;32.00;73.20
21184;DHT22;18176;49.502;11.754;2022-07-23T17:37:05;31.70;72.10
21184;DHT22;18176;49.502;11.754;2022-07-23T17:41:05;31.20;72.60
21184;DHT22;18176;49.502;11.754;2022-07-23T17:45:03;30.30;73.90
21184;DHT22;18176;49.502;11.754;2022-07-23T17:49:03;29.60;76.40
21184;DHT22;18176;49.502;11.754;2022-07-23T17:53:00;29.10;77.40
21184;DHT22;18176;49.502;11.754;2022-07-23T17:56:58;29.10;77.60
21184;DHT22;18176;49.502;11.754;2022-07-23T18:01:03;28.80;78.40
21184;DHT22;18176;49.502;11.754;2022-07-23T18:05:01;28.10;80.70
21184;DHT22;18176;49.502;11.754;2022-07-23T18:08:59;27.80;81.10
21184;DHT22;18176;49.502;11.754;2022-07-23T18:13:04;27.70;82.10
21184;DHT22;18176;49.502;11.754;2022-07-23T18:17:04;27.40;82.70
21184;DHT22;18176;49.502;11.754;2022-07-23T18:21:02;27.10;83.40
21184;DHT22;18176;49.502;11.754;2022-07-23T18:25:01;26.70;84.80
21184;DHT22;18176;49.502;11.754;2022-07-23T18:28:59;26.40;86.10
21184;DHT22;18176;49.502;11.754;2022-07-23T18:32:56;26.20;87.50
21184;DHT22;18176;49.502;11.754;2022-07-23T18:37:00;26.00;88.60
21184;DHT22;18176;49.502;11.754;2022-07-23T18:40:57;25.80;89.50
21184;DHT22;18176;49.502;11.754;2022-07-23T18:44:54;25.60;90.20
21184;DHT22;18176;49.502;11.754;2022-07-23T18:48:51;25.50;90.60
21184;DHT22;18176;49.502;11.754;2022-07-23T18:52:49;25.20;90.80
21184;DHT22;18176;49.502;11.754;2022-07-23T18:56:46;25.00;91.40
21184;DHT22;18176;49.502;11.754;2022-07-23T19:00:44;24.90;92.00
21184;DHT22;18176;49.502;11.754;2022-07-23T19:04:41;24.80;92.80
21184;DHT22;18176;49.502;11.754;2022-07-23T19:08:39;24.70;92.90
21184;DHT22;18176;49.502;11.754;2022-07-23T19:12:37;24.50;93.60
21184;DHT22;18176;49.502;11.754;2022-07-23T19:16:35;24.30;94.10
21184;DHT22;18176;49.502;11.754;2022-07-23T19:20:32;24.10;94.60
21184;DHT22;18176;49.502;11.754;2022-07-23T19:24:30;23.90;95.20
21184;DHT22;18176;49.502;11.754;2022-07-23T19:28:28;23.60;95.80
21184;DHT22;18176;49.502;11.754;2022-07-23T19:32:26;23.50;96.30
21184;DHT22;18176;49.502;11.754;2022-07-23T19:36:26;23.30;96.90
21184;DHT22;18176;49.502;11.754;2022-07-23T19:40:24;23.10;97.50
21184;DHT22;18176;49.502;11.754;2022-07-23T19:44:22;23.00;98.10
21184;DHT22;18176;49.502;11.754;2022-07-23T19:48:19;22.80;98.70
21184;DHT22;18176;49.502;11.754;2022-07-23T19:52:16;22.70;99.10
21184;DHT22;18176;49.502;11.754;2022-07-23T19:56:13;22.50;99.50
21184;DHT22;18176;49.502;11.754;2022-07-23T20:00:13;22.40;99.90
21184;DHT22;18176;49.502;11.754;2022-07-23T20:04:11;22.30;99.70
21184;DHT22;18176;49.502;11.754;2022-07-23T20:08:09;22.20;99.40
21184;DHT22;18176;49.502;11.754;2022-07-23T20:12:13;22.20;99.30
21184;DHT22;18176;49.502;11.754;2022-07-23T20:16:12;22.10;99.60
21184;DHT22;18176;49.502;11.754;2022-07-23T20:20:10;22.00;99.90
21184;DHT22;18176;49.502;11.754;2022-07-23T20:24:07;22.00;99.90
21184;DHT22;18176;49.502;11.754;2022-07-23T20:28:07;21.90;99.90
21184;DHT22;18176;49.502;11.754;2022-07-23T20:32:04;21.80;99.90
21184;DHT22;18176;49.502;11.754;2022-07-23T20:36:02;21.70;99.90
21184;DHT22;18176;49.502;11.754;2022-07-23T20:40:00;21.70;99.90
21184;DHT22;18176;49.502;11.754;2022-07-23T20:43:57;21.60;99.90
21184;DHT22;18176;49.502;11.754;2022-07-23T20:47:54;21.50;99.90
21184;DHT22;18176;49.502;11.754;2022-07-23T20:51:51;21.40;99.90
21184;DHT22;18176;49.502;11.754;2022-07-23T20:55:48;21.20;99.90
21184;DHT22;18176;49.502;11.754;2022-07-23T20:59:46;21.10;99.90
21184;DHT22;18176;49.502;11.754;2022-07-23T21:03:43;21.10;99.90
21184;DHT22;18176;49.502;11.754;2022-07-23T21:07:41;21.00;99.90
21184;DHT22;18176;49.502;11.754;2022-07-23T21:11:40;20.90;99.90
21184;DHT22;18176;49.502;11.754;2022-07-23T21:15:38;20.80;99.90
21184;DHT22;18176;49.502;11.754;2022-07-23T21:19:35;20.60;99.90
21184;DHT22;18176;49.502;11.754;2022-07-23T21:23:32;20.50;99.90
21184;DHT22;18176;49.502;11.754;2022-07-23T21:27:33;20.40;99.90
21184;DHT22;18176;49.502;11.754;2022-07-23T21:31:30;20.30;99.90
21184;DHT22;18176;49.502;11.754;2022-07-23T21:35:28;20.20;99.90
21184;DHT22;18176;49.502;11.754;2022-07-23T21:39:28;20.10;99.90
21184;DHT22;18176;49.502;11.754;2022-07-23T21:43:27;20.00;99.90
21184;DHT22;18176;49.502;11.754;2022-07-23T21:47:24;20.00;99.90
21184;DHT22;18176;49.502;11.754;2022-07-23T21:51:22;20.00;99.90
21184;DHT22;18176;49.502;11.754;2022-07-23T21:55:19;19.90;99.90
21184;DHT22;18176;49.502;11.754;2022-07-23T21:59:16;19.80;99.90
21184;DHT22;18176;49.502;11.754;2022-07-23T22:03:13;19.70;99.90
21184;DHT22;18176;49.502;11.754;2022-07-23T22:07:11;19.70;99.90
21184;DHT22;18176;49.502;11.754;2022-07-23T22:11:10;19.60;99.90
21184;DHT22;18176;49.502;11.754;2022-07-23T22:15:10;19.50;99.90
21184;DHT22;18176;49.502;11.754;2022-07-23T22:19:09;19.50;99.90
21184;DHT22;18176;49.502;11.754;2022-07-23T22:23:07;19.40;99.90
21184;DHT22;18176;49.502;11.754;2022-07-23T22:27:05;19.40;99.90
21184;DHT22;18176;49.502;11.754;2022-07-23T22:31:02;19.30;99.90
21184;DHT22;18176;49.502;11.754;2022-07-23T22:35:04;19.20;99.90
21184;DHT22;18176;49.502;11.754;2022-07-23T22:39:02;19.20;99.90
21184;DHT22;18176;49.502;11.754;2022-07-23T22:43:01;19.10;99.90
21184;DHT22;18176;49.502;11.754;2022-07-23T22:46:59;19.10;99.90
21184;DHT22;18176;49.502;11.754;2022-07-23T22:50:56;19.10;99.90
21184;DHT22;18176;49.502;11.754;2022-07-23T22:54:54;19.00;99.90
21184;DHT22;18176;49.502;11.754;2022-07-23T22:58:51;19.00;99.90
21184;DHT22;18176;49.502;11.754;2022-07-23T23:03:08;18.90;99.90
21184;DHT22;18176;49.502;11.754;2022-07-23T23:07:05;18.80;99.90
21184;DHT22;18176;49.502;11.754;2022-07-23T23:11:03;18.70;99.90
21184;DHT22;18176;49.502;11.754;2022-07-23T23:15:00;18.70;99.90
21184;DHT22;18176;49.502;11.754;2022-07-23T23:18:58;18.60;99.90
21184;DHT22;18176;49.502;11.754;2022-07-23T23:22:56;18.50;99.90
21184;DHT22;18176;49.502;11.754;2022-07-23T23:26:53;18.40;99.90
21184;DHT22;18176;49.502;11.754;2022-07-23T23:30:50;18.40;99.90
21184;DHT22;18176;49.502;11.754;2022-07-23T23:34:47;18.30;99.90
21184;DHT22;18176;49.502;11.754;2022-07-23T23:38:44;18.30;99.90
21184;DHT22;18176;49.502;11.754;2022-07-23T23:42:41;18.20;99.90
21184;DHT22;18176;49.502;11.754;2022-07-23T23:46:38;18.10;99.90
21184;DHT22;18176;49.502;11.754;2022-07-23T23:50:37;18.00;99.90
21184;DHT22;18176;49.502;11.754;2022-07-23T23:54:34;18.00;99.90
21184;DHT22;18176;49.502;11.754;2022-07-23T23:58:31;17.80;99.90
